Flight Track Log - Related Links

Times and Time Zones

All times are in EDT time to prevent confusion due to time zone crossing. See the SWA2166 flight status page for this flight to view local times or setup timezone preferences in your user account.

Time Position Orientation Groundspeed Altitude Reporting Facility
EDT Latitude Longitude Course Direction KTS MPH feet Rate Location/Type
Mon 10:44:45 AM 41.8419 -87.7978 354° North 248 285 3,700  Level Chicago Center
Mon 10:45:46 AM 41.8375 -87.6972 93° East 280 322 5,100 2,927 Climbing Chicago Center
Mon 10:46:48 AM 41.8489 -87.5742 83° East 326 375 9,700 4,355 Climbing Chicago Center
Mon 10:47:50 AM 41.8450 -87.4536 92° East 326 375 14,100 3,220 Climbing Chicago Center
Mon 10:48:51 AM 41.8172 -87.3281 106° East 347 399 16,300 2,238 Climbing Chicago Center
Mon 10:50:00 AM 41.8384 -87.1460 84° East  Level FlightAware Approximate
Mon 10:50:55 AM 41.8297 -86.9919 84° East 423 487 21,000  Level Chicago Center
Mon 10:51:56 AM 41.8433 -86.8356 83° East 423 487 22,200 2,390 Climbing Chicago Center
Mon 10:52:58 AM 41.8553 -86.6875 84° East 436 502 25,900 2,976 Climbing Chicago Center
Mon 10:53:59 AM 41.8803 -86.5256 78° East 446 513 28,300 2,341 Climbing Chicago Center
Mon 10:55:01 AM 41.9178 -86.3597 73° East 462 532 30,700 2,780 Climbing Chicago Center
Mon 10:56:02 AM 41.9614 -86.1536 74° East 474 545 34,000 2,195 Climbing Chicago Center
Mon 10:57:04 AM 41.9758 -85.9769 84° East 484 557 35,200 1,366 Climbing Chicago Center
Mon 10:58:05 AM 41.9858 -85.7903 86° East 497 572 36,800 1,659 Climbing Chicago Center
Mon 10:59:07 AM 41.9983 -85.6011 85° East 504 580 38,600 1,415 Climbing Chicago Center
Mon 11:00:08 AM 42.0081 -85.4319 86° East 507 583 39,700 1,190 Climbing Chicago Center
Mon 11:01:08 AM 42.0231 -85.2069 85° East 511 588 41,000 650 Climbing Cleveland Center
Mon 11:02:08 AM 42.0325 -85.0258 86° East 500 575 41,000  Level Cleveland Center
Mon 11:03:08 AM 42.0433 -84.8447 85° East 495 570 41,000  Level Cleveland Center
Mon 11:04:08 AM 42.0519 -84.6636 86° East 489 563 41,000  Level Cleveland Center
Mon 11:05:08 AM 42.0622 -84.4878 85° East 479 551 41,000  Level Cleveland Center
Mon 11:06:08 AM 42.0706 -84.3067 86° East 474 545 41,000  Level Cleveland Center
Mon 11:07:08 AM 42.0714 -84.1472 90° East 474 545 41,000  Level Cleveland Center
Mon 11:08:08 AM 42.0808 -83.9714 86° East 474 545 41,000  Level Cleveland Center
Mon 11:09:08 AM 42.0881 -83.7925 87° East 474 545 41,000  Level Cleveland Center
Mon 11:10:08 AM 42.0928 -83.6194 88° East 474 545 41,000  Level Cleveland Center
Mon 11:11:08 AM 42.1019 -83.4211 86° East 479 551 41,000  Level Cleveland Center
Mon 11:12:08 AM 42.1083 -83.2450 87° East 473 544 41,000  Level Cleveland Center
Mon 11:13:08 AM 42.1144 -83.0633 87° East 478 550 41,000  Level Cleveland Center
Mon 11:14:08 AM 42.1308 -82.8819 83° East 478 550 41,000  Level Cleveland Center
Mon 11:15:08 AM 42.1489 -82.7061 82° East 478 550 41,000  Level Cleveland Center
Mon 11:16:08 AM 42.1622 -82.5300 84° East 478 550 41,000  Level Cleveland Center
Mon 11:17:08 AM 42.1756 -82.3539 84° East 478 550 41,000  Level Cleveland Center
Mon 11:18:08 AM 42.1886 -82.1750 84° East 478 550 41,000  Level Cleveland Center
Mon 11:19:08 AM 42.2053 -82.0183 82° East 478 550 41,000  Level Cleveland Center
Mon 11:20:08 AM 42.2200 -81.8392 84° East 478 550 41,000  Level Cleveland Center
Mon 11:21:08 AM 42.2344 -81.6433 84° East 478 550 41,000  Level Cleveland Center
Mon 11:22:08 AM 42.2483 -81.4611 84° East 484 557 41,000  Level Cleveland Center
Mon 11:23:08 AM 42.2622 -81.2817 84° East 484 557 41,000  Level Cleveland Center
Mon 11:24:08 AM 42.2736 -81.0967 85° East 484 557 41,000  Level Cleveland Center
Mon 11:25:08 AM 42.2867 -80.9114 84° East 484 557 41,000  Level Cleveland Center
Mon 11:26:08 AM 42.2997 -80.7319 84° East 484 557 41,000  Level Cleveland Center
Mon 11:27:08 AM 42.3122 -80.5522 85° East 477 549 41,000  Level Cleveland Center
Mon 11:28:08 AM 42.3225 -80.3867 85° East 482 555 41,000  Level Cleveland Center
Mon 11:29:08 AM 42.3344 -80.2097 85° East 477 549 41,000  Level Cleveland Center
Mon 11:30:08 AM 42.3464 -80.0325 85° East 477 549 41,000  Level Cleveland Center
Mon 11:31:08 AM 42.3578 -79.8497 85° East 477 549 41,000  Level Cleveland Center
Mon 11:32:08 AM 42.3669 -79.6756 86° East 477 549 41,000  Level Cleveland Center
Mon 11:33:08 AM 42.3800 -79.4956 84° East 477 549 41,000  Level Cleveland Center
Mon 11:34:08 AM 42.3867 -79.3181 87° East 477 549 41,000  Level Cleveland Center
Mon 11:35:08 AM 42.3969 -79.1381 86° East 477 549 41,000  Level Cleveland Center
Mon 11:36:08 AM 42.4072 -78.9578 86° East 477 549 41,000  Level Cleveland Center
Mon 11:37:08 AM 42.4169 -78.7775 86° East 477 549 41,000  Level Cleveland Center
Mon 11:38:08 AM 42.4286 -78.5944 85° East 482 555 41,000  Level Cleveland Center
Mon 11:39:08 AM 42.4356 -78.4086 87° East 482 555 41,000  Level Cleveland Center
Mon 11:40:08 AM 42.4444 -78.2253 86° East 482 555 41,000  Level Cleveland Center
Mon 11:43:12 AM 42.4689 -77.6428 87° East 494 568 41,000  Level Boston Center
Mon 11:44:12 AM 42.4750 -77.4575 87° East 494 568 41,000  Level Boston Center
Mon 11:45:11 AM 42.4831 -77.2750 87° East 494 568 41,000  Level Boston Center
Mon 11:46:12 AM 42.4925 -77.0953 86° East 475 547 41,000  Level Boston Center
Mon 11:47:12 AM 42.4978 -76.9097 88° East 475 547 41,000  Level Boston Center
Mon 11:48:12 AM 42.5028 -76.7269 88° East 475 547 41,000  Level Boston Center
Mon 11:49:10 AM 42.5097 -76.5442 87° East 481 554 41,000  Level Boston Center
Mon 11:50:10 AM 42.5142 -76.3558 88° East 486 559 41,000  Level Boston Center
Mon 11:51:12 AM 42.5031 -76.1917 95° East 492 566 41,000  Level Boston Center
Mon 11:52:12 AM 42.4883 -76.0050 96° East 492 566 41,000  Level Boston Center
Mon 11:53:11 AM 42.4794 -75.8186 94° East 492 566 41,000 -508 Level Boston Center
Mon 11:54:10 AM 42.4661 -75.6319 95° East 497 572 40,000 -992 Descending Boston Center
Mon 11:55:12 AM 42.4525 -75.4428 96° East 505 581 39,000 -934 Descending Boston Center
Mon 11:56:12 AM 42.4403 -75.2650 95° East 493 567 38,100 -966 Descending Boston Center
Mon 11:57:10 AM 42.4278 -75.0897 95° East 481 554 37,100 -966 Descending Boston Center
Mon 11:58:10 AM 42.4131 -74.9119 96° East 481 554 36,200 -1,835 Descending Boston Center
Mon 11:59:11 AM 42.3986 -74.7119 96° East 482 555 33,400 -2,579 Descending Boston Center
Mon 12:00:11 PM 42.3833 -74.5314 96° East 482 555 31,000 -2,132 Descending Boston Center
Mon 12:01:12 PM 42.3736 -74.3736 95° East 477 549 29,100 -1,182 Descending Boston Center
Mon 12:02:23 PM 42.3600 -74.1764 95° East 457 526 28,400 -779 Descending Boston Center
Mon 12:03:23 PM 42.3456 -74.0244 97° East 434 499 27,400 -992 Descending Boston Center
Mon 12:04:24 PM 42.3331 -73.8725 96° East 418 481 26,400 -958 Descending Boston Center
Mon 12:05:22 PM 42.3203 -73.7206 96° East 412 474 25,500 -950 Descending Boston Center
Mon 12:06:24 PM 42.3094 -73.5575 95° East 424 488 24,500 -1,000 Descending Boston Center
Mon 12:07:22 PM 42.2964 -73.4000 96° East 424 488 23,500 -966 Descending Boston Center
Mon 12:08:22 PM 42.2786 -73.2511 99° East 419 482 22,600 -1,100 Descending Boston Center
Mon 12:09:22 PM 42.2339 -73.0992 112° Southeast 407 468 21,300 -1,091 Descending Boston Center
Mon 12:10:23 PM 42.1594 -72.9892 132° Southeast 387 445 20,400 -942 Descending Boston Center
Mon 12:11:23 PM 42.0828 -72.8819 134° Southeast 392 451 19,400 -700 Descending Boston Center
Mon 12:12:23 PM 42.0081 -72.7839 136° Southeast 387 445 19,000 -202 Descending Boston Center
Mon 12:13:22 PM 41.9353 -72.6800 133° Southeast 382 440 19,000 -504 Level Boston Center
Mon 12:14:22 PM 41.8708 -72.5628 126° Southeast 382 440 18,000 -1,438 Descending Boston Center
Mon 12:15:23 PM 41.8086 -72.4539 127° Southeast 382 440 16,100 -2,049 Descending Boston Center
Mon 12:16:25 PM 41.7458 -72.3400 126° Southeast 382 440 13,800 -2,067 Descending Boston Center
Mon 12:17:22 PM 41.6894 -72.2317 125° Southeast 365 420 12,000 -1,407 Descending Boston Center
Mon 12:17:46 PM 41.6644 -72.1956 133° Southeast 351 404 11,900 -400 Descending Boston Center
Mon 12:18:22 PM 41.6331 -72.1317 123° Southeast 353 406 11,600 -857 Descending Boston Center
Mon 12:19:24 PM 41.5786 -72.0406 129° Southeast 328 377 10,500 -1,230 Descending Boston Center
Mon 12:20:24 PM 41.5261 -71.9467 127° Southeast 315 362 9,100 -1,627 Descending Boston Center
Mon 12:21:22 PM 41.4964 -71.8442 111° Southeast 305 351 7,300 -1,695 Descending Boston Center
Mon 12:22:35 PM 41.4664 -71.7169 107° East 303 349 5,400 -1,353 Descending Boston Center
Mon 12:23:35 PM 41.4928 -71.6142 71° East 278 320 4,300 -992 Descending Boston Center
Mon 12:24:36 PM 41.5425 -71.5747 31° Northeast 224 258 3,400 -843 Descending Boston Center
Mon 12:25:36 PM 41.5944 -71.5353 30° Northeast 195 224 2,600 -793 Descending Boston Center
Mon 12:26:37 PM 41.6358 -71.5014 31° Northeast 175 201 1,800 -756 Descending Boston Center
Mon 12:27:35 PM 41.6711 -71.4731 31° Northeast 158 182 1,100 -769 Descending Boston Center
Mon 12:28:34 PM 41.7019 -71.4447 34° Northeast 139 160 300 -500 Descending Boston Center
Mon 12:29:35 PM 41.7311 -71.4219 30° Northeast 139 160 100 9,273 Descending Boston Center
Mon 12:30:35 PM 41.7619 -71.3936 34° Northeast 139 160 19,000 9,372 Climbing Boston Center
Mon 12:31:36 PM 41.7931 -71.3653 34° Northeast 139 160 19,000  Level Boston Center
Mon 12:32:36 PM 41.8239 -71.3369 34° Northeast 139 160 19,000  Level Boston Center
Mon 12:34:00 PM 41.7167 -71.4167 217° Southwest  Level FlightAware Approximate
Mon 12:41:00 PM 41.7240 -71.4282 217° Southwest  Level Estimated

Login

Don't have an account? Register now (free) for customized features, flight alerts, and more!